LELC Airport Information

Runway Information
Runway 05 Length 7546 ft width 197 ft
Elevation 11 ft Threshold 0 ft Heading 46
Runway 23 Length 7546 ft Width 197 ft
Elevation 5 ft Threshold 0 ft Heading 226
Runway 05L Length 2867 ft width 197 ft
Elevation 0 ft Threshold 0 ft Heading 46
Runway 23R Length 2867 ft Width 197 ft
Elevation 0 ft Threshold 0 ft Heading 226
Runway 14 Length 2625 ft width 197 ft
Elevation 0 ft Threshold 0 ft Heading 136
Runway 32 Length 2625 ft Width 197 ft
Elevation 0 ft Threshold 0 ft Heading 316
Airport Frequencies
Type APP Name SAN JAVIER Frequency 130.3 MHZ
Type GND Name SAN JAVIER Frequency 121.6 MHZ
Type TWR Name SAN JAVIER Frequency 130.3 MHZ
Airport Navaids
Type NDB Name Murcia/San Javier Frequency 381 KHZ
Type NDB Name Murcia/San Javier Frequency 370 KHZ
Type TACAN Name Murcia/San Javier Frequency 113000 KHZ
Type VOR-DME Name Murcia/San Javier Frequency 113000 KHZ
Airport Weather Information & NOTAM
ADDS - METARS form results

(1910 UTC 22 June 2018)
 
METAR text: LELC 221900Z 06006KT CAVOK 25/18 Q1016 NOSIG
Conditions at: LELC (SAN JAVIER(MIL/C, ES) observed 1900 UTC 22 June 2018
Temperature: 25.0°C (77°F)
Dewpoint: 18.0°C (64°F) [RH = 65%]
Pressure (altimeter): 30.00 inches Hg (1016.0 mb)
Winds: from the ENE (60 degrees) at 7 MPH (6 knots; 3.1 m/s)
Visibility: 6 or more miles (10+ km)
Ceiling: ceiling and visibility are OK
Clouds: unknown
Weather: no significant weather observed at this time